Accueil
METAR-TAF:

METAR-TAF

Aéroports :

Shelby, Caroline du Nord, États-Unis

latitude: 35-15N, longitude: 081-36W, altitude: 258 m

Observation

Le bulletin a été fait il y a 58 minutes, à 14:55 UTC
Vent calme
Température 0°C
Humidité 69%
Pression 1029 hPa
Visibilité: 16.1 km
Ciel couvert à une hauteur de 2000 ft

METAR: KEHO 141455Z AUTO 00000KT 10SM OVC020 00/M05 A3040 RMK AO2 T00001050

Heure: 10:53 (15:53 UTC)


TAF: absent

Observations et prévisions météorologiques de plus de 4000 aéroports (messages METAR et TAF).

Les stations disponibles sont représentées par des disques jaunes et rouges sur la carte.

Passer la souris dessus pour voir le nom de la station.

Cliquer dessus pour voir les observations et prévisions météorologiques.

Pour changer de carte: cliquez sur les boutons verts avec une croix noire pour zoomer, sur le bouton vert avec un tiret pour effectuer un zoom arrière, ou sur les flèches vertes pour les cartes adjacentes.


METAR-TAF: